sensor_id;sensor_type;location;lat;lon;timestamp;P1;durP1;ratioP1;P2;durP2;ratioP2
26411;SDS011;59168;;;2022-08-16T00:00:27;38.15;;;27.80;;
26411;SDS011;59168;;;2022-08-16T00:02:54;35.78;;;26.50;;
26411;SDS011;59168;;;2022-08-16T00:05:21;31.75;;;24.70;;
26411;SDS011;59168;;;2022-08-16T00:07:48;32.90;;;25.65;;
26411;SDS011;59168;;;2022-08-16T00:10:15;32.35;;;23.17;;
26411;SDS011;59168;;;2022-08-16T00:12:41;35.92;;;26.70;;
26411;SDS011;59168;;;2022-08-16T00:15:13;30.75;;;24.52;;
26411;SDS011;59168;;;2022-08-16T00:17:45;29.13;;;23.98;;
26411;SDS011;59168;;;2022-08-16T00:20:11;32.30;;;25.05;;
26411;SDS011;59168;;;2022-08-16T00:22:37;34.53;;;25.92;;
26411;SDS011;59168;;;2022-08-16T00:25:07;31.65;;;23.98;;
26411;SDS011;59168;;;2022-08-16T00:27:34;29.20;;;23.90;;
26411;SDS011;59168;;;2022-08-16T00:29:59;36.38;;;25.33;;
26411;SDS011;59168;;;2022-08-16T00:32:25;30.13;;;23.58;;
26411;SDS011;59168;;;2022-08-16T00:34:51;32.60;;;23.85;;
26411;SDS011;59168;;;2022-08-16T00:37:17;29.83;;;23.90;;
26411;SDS011;59168;;;2022-08-16T00:39:44;32.88;;;24.15;;
26411;SDS011;59168;;;2022-08-16T00:42:11;33.92;;;24.60;;
26411;SDS011;59168;;;2022-08-16T00:44:36;33.08;;;26.15;;
26411;SDS011;59168;;;2022-08-16T00:47:06;34.67;;;25.08;;
26411;SDS011;59168;;;2022-08-16T00:49:36;33.78;;;25.13;;
26411;SDS011;59168;;;2022-08-16T00:52:02;32.47;;;24.58;;
26411;SDS011;59168;;;2022-08-16T00:54:28;30.60;;;23.70;;
26411;SDS011;59168;;;2022-08-16T00:56:55;28.65;;;23.13;;
26411;SDS011;59168;;;2022-08-16T00:59:23;31.13;;;23.75;;
26411;SDS011;59168;;;2022-08-16T01:01:51;30.75;;;24.27;;
26411;SDS011;59168;;;2022-08-16T01:04:19;33.92;;;24.73;;
26411;SDS011;59168;;;2022-08-16T01:06:47;29.63;;;23.08;;
26411;SDS011;59168;;;2022-08-16T01:09:14;29.08;;;23.67;;
26411;SDS011;59168;;;2022-08-16T01:11:40;33.20;;;23.92;;
26411;SDS011;59168;;;2022-08-16T01:14:10;27.83;;;22.30;;
26411;SDS011;59168;;;2022-08-16T01:16:42;34.17;;;24.05;;
26411;SDS011;59168;;;2022-08-16T01:19:19;31.23;;;24.08;;
26411;SDS011;59168;;;2022-08-16T01:24:59;29.83;;;23.80;;
26411;SDS011;59168;;;2022-08-16T01:30:21;32.55;;;24.45;;
26411;SDS011;59168;;;2022-08-16T01:32:55;29.58;;;23.58;;
26411;SDS011;59168;;;2022-08-16T01:35:24;33.20;;;23.63;;
26411;SDS011;59168;;;2022-08-16T01:37:54;33.08;;;25.10;;
26411;SDS011;59168;;;2022-08-16T01:40:23;32.97;;;25.92;;
26411;SDS011;59168;;;2022-08-16T01:42:51;32.72;;;25.50;;
26411;SDS011;59168;;;2022-08-16T01:45:18;31.92;;;23.58;;
26411;SDS011;59168;;;2022-08-16T01:47:46;30.02;;;23.80;;
26411;SDS011;59168;;;2022-08-16T01:50:14;28.83;;;23.10;;
26411;SDS011;59168;;;2022-08-16T01:52:40;31.58;;;24.63;;
26411;SDS011;59168;;;2022-08-16T01:55:07;29.50;;;23.92;;
26411;SDS011;59168;;;2022-08-16T01:57:33;31.92;;;23.58;;
26411;SDS011;59168;;;2022-08-16T01:59:59;29.95;;;24.77;;
26411;SDS011;59168;;;2022-08-16T02:02:25;32.97;;;25.08;;
26411;SDS011;59168;;;2022-08-16T02:04:51;33.38;;;24.38;;
26411;SDS011;59168;;;2022-08-16T02:07:17;32.38;;;24.73;;
26411;SDS011;59168;;;2022-08-16T02:09:45;32.17;;;24.63;;
26411;SDS011;59168;;;2022-08-16T02:12:12;32.33;;;24.17;;
26411;SDS011;59168;;;2022-08-16T02:14:40;32.10;;;25.60;;
26411;SDS011;59168;;;2022-08-16T02:17:07;31.25;;;24.35;;
26411;SDS011;59168;;;2022-08-16T02:19:35;32.42;;;23.58;;
26411;SDS011;59168;;;2022-08-16T02:22:05;30.65;;;23.83;;
26411;SDS011;59168;;;2022-08-16T02:24:34;29.70;;;24.58;;
26411;SDS011;59168;;;2022-08-16T02:26:59;30.23;;;24.63;;
26411;SDS011;59168;;;2022-08-16T02:29:25;28.88;;;23.13;;
26411;SDS011;59168;;;2022-08-16T02:31:51;29.98;;;24.48;;
26411;SDS011;59168;;;2022-08-16T02:34:18;30.95;;;24.10;;
26411;SDS011;59168;;;2022-08-16T02:36:44;32.78;;;25.80;;
26411;SDS011;59168;;;2022-08-16T02:39:11;31.20;;;24.02;;
26411;SDS011;59168;;;2022-08-16T02:41:39;30.45;;;24.20;;
26411;SDS011;59168;;;2022-08-16T02:44:06;30.17;;;24.10;;
26411;SDS011;59168;;;2022-08-16T02:46:35;31.83;;;24.88;;
26411;SDS011;59168;;;2022-08-16T02:49:01;35.17;;;25.23;;
26411;SDS011;59168;;;2022-08-16T02:51:28;34.53;;;25.45;;
26411;SDS011;59168;;;2022-08-16T02:53:53;35.05;;;26.63;;
26411;SDS011;59168;;;2022-08-16T02:56:20;35.25;;;26.55;;
26411;SDS011;59168;;;2022-08-16T02:58:50;36.88;;;28.23;;
26411;SDS011;59168;;;2022-08-16T03:01:21;36.95;;;27.30;;
26411;SDS011;59168;;;2022-08-16T03:03:51;39.10;;;28.70;;
26411;SDS011;59168;;;2022-08-16T03:06:18;37.90;;;28.40;;
26411;SDS011;59168;;;2022-08-16T03:08:45;39.97;;;28.48;;
26411;SDS011;59168;;;2022-08-16T03:11:11;38.38;;;28.35;;
26411;SDS011;59168;;;2022-08-16T03:13:37;39.60;;;28.67;;
26411;SDS011;59168;;;2022-08-16T03:16:04;37.47;;;28.58;;
26411;SDS011;59168;;;2022-08-16T03:18:30;35.97;;;27.85;;
26411;SDS011;59168;;;2022-08-16T03:20:56;39.05;;;28.55;;
26411;SDS011;59168;;;2022-08-16T03:23:23;39.58;;;29.35;;
26411;SDS011;59168;;;2022-08-16T03:25:49;37.28;;;27.67;;
26411;SDS011;59168;;;2022-08-16T03:28:15;41.92;;;30.08;;
26411;SDS011;59168;;;2022-08-16T03:30:40;40.42;;;28.33;;
26411;SDS011;59168;;;2022-08-16T03:33:06;37.05;;;28.48;;
26411;SDS011;59168;;;2022-08-16T03:35:32;39.22;;;29.23;;
26411;SDS011;59168;;;2022-08-16T03:38:01;41.08;;;29.63;;
26411;SDS011;59168;;;2022-08-16T03:40:30;40.22;;;30.15;;
26411;SDS011;59168;;;2022-08-16T03:42:57;43.15;;;30.83;;
26411;SDS011;59168;;;2022-08-16T03:45:22;41.47;;;30.38;;
26411;SDS011;59168;;;2022-08-16T03:47:49;42.58;;;30.02;;
26411;SDS011;59168;;;2022-08-16T03:50:16;42.65;;;30.73;;
26411;SDS011;59168;;;2022-08-16T03:52:42;43.78;;;31.40;;
26411;SDS011;59168;;;2022-08-16T03:55:08;42.67;;;29.98;;
26411;SDS011;59168;;;2022-08-16T03:57:35;42.22;;;29.73;;
26411;SDS011;59168;;;2022-08-16T04:00:09;42.53;;;31.15;;
26411;SDS011;59168;;;2022-08-16T04:02:40;47.00;;;31.50;;
26411;SDS011;59168;;;2022-08-16T04:05:07;41.13;;;30.27;;
26411;SDS011;59168;;;2022-08-16T04:07:34;44.17;;;30.73;;
26411;SDS011;59168;;;2022-08-16T04:10:00;44.47;;;30.08;;
26411;SDS011;59168;;;2022-08-16T04:12:27;41.35;;;30.38;;
26411;SDS011;59168;;;2022-08-16T04:14:52;40.20;;;29.13;;
26411;SDS011;59168;;;2022-08-16T04:17:18;40.92;;;30.48;;
26411;SDS011;59168;;;2022-08-16T04:19:43;43.45;;;30.55;;
26411;SDS011;59168;;;2022-08-16T04:22:09;42.67;;;30.98;;
26411;SDS011;59168;;;2022-08-16T04:24:35;42.33;;;28.80;;
26411;SDS011;59168;;;2022-08-16T04:27:02;37.97;;;28.50;;
26411;SDS011;59168;;;2022-08-16T04:29:28;37.35;;;28.23;;
26411;SDS011;59168;;;2022-08-16T04:31:54;43.22;;;30.27;;
26411;SDS011;59168;;;2022-08-16T04:34:20;38.40;;;28.40;;
26411;SDS011;59168;;;2022-08-16T04:36:46;38.63;;;28.70;;
26411;SDS011;59168;;;2022-08-16T04:39:12;36.65;;;28.38;;
26411;SDS011;59168;;;2022-08-16T04:41:38;34.88;;;27.13;;
26411;SDS011;59168;;;2022-08-16T04:44:04;38.92;;;28.52;;
26411;SDS011;59168;;;2022-08-16T04:46:30;36.80;;;28.02;;
26411;SDS011;59168;;;2022-08-16T04:48:56;35.10;;;26.77;;
26411;SDS011;59168;;;2022-08-16T04:51:22;33.95;;;27.30;;
26411;SDS011;59168;;;2022-08-16T04:53:48;41.38;;;26.55;;
26411;SDS011;59168;;;2022-08-16T04:56:14;40.30;;;27.73;;
26411;SDS011;59168;;;2022-08-16T04:58:42;36.70;;;27.38;;
26411;SDS011;59168;;;2022-08-16T05:01:07;30.35;;;23.60;;
26411;SDS011;59168;;;2022-08-16T05:03:33;32.65;;;20.77;;
26411;SDS011;59168;;;2022-08-16T05:05:59;23.80;;;16.67;;
26411;SDS011;59168;;;2022-08-16T05:08:25;23.00;;;16.52;;
26411;SDS011;59168;;;2022-08-16T05:10:52;22.63;;;16.27;;
26411;SDS011;59168;;;2022-08-16T05:13:18;18.55;;;15.02;;
26411;SDS011;59168;;;2022-08-16T05:15:44;17.33;;;15.45;;
26411;SDS011;59168;;;2022-08-16T05:18:12;20.45;;;15.90;;
26411;SDS011;59168;;;2022-08-16T05:20:38;18.23;;;15.60;;
26411;SDS011;59168;;;2022-08-16T05:23:04;18.92;;;16.10;;
26411;SDS011;59168;;;2022-08-16T05:25:30;19.13;;;15.05;;
26411;SDS011;59168;;;2022-08-16T05:27:55;16.75;;;14.73;;
26411;SDS011;59168;;;2022-08-16T05:30:23;20.30;;;14.25;;
26411;SDS011;59168;;;2022-08-16T05:32:49;15.38;;;13.70;;
26411;SDS011;59168;;;2022-08-16T05:35:15;13.35;;;11.95;;
26411;SDS011;59168;;;2022-08-16T05:37:41;16.77;;;13.35;;
26411;SDS011;59168;;;2022-08-16T05:40:08;15.80;;;13.02;;
26411;SDS011;59168;;;2022-08-16T05:42:35;14.43;;;12.93;;
26411;SDS011;59168;;;2022-08-16T05:45:01;15.13;;;13.52;;
26411;SDS011;59168;;;2022-08-16T05:47:28;15.82;;;14.15;;
26411;SDS011;59168;;;2022-08-16T05:49:53;18.13;;;13.88;;
26411;SDS011;59168;;;2022-08-16T05:52:19;14.20;;;12.70;;
26411;SDS011;59168;;;2022-08-16T05:54:45;22.45;;;13.15;;
26411;SDS011;59168;;;2022-08-16T05:57:10;14.77;;;13.18;;
26411;SDS011;59168;;;2022-08-16T05:59:36;15.93;;;13.23;;
26411;SDS011;59168;;;2022-08-16T06:02:03;15.00;;;13.50;;
26411;SDS011;59168;;;2022-08-16T06:04:30;14.77;;;13.20;;
26411;SDS011;59168;;;2022-08-16T06:06:56;14.73;;;13.15;;
26411;SDS011;59168;;;2022-08-16T06:09:22;15.90;;;12.13;;
26411;SDS011;59168;;;2022-08-16T06:11:49;13.63;;;12.13;;
26411;SDS011;59168;;;2022-08-16T06:14:15;13.60;;;12.25;;
26411;SDS011;59168;;;2022-08-16T06:16:41;14.95;;;12.82;;
26411;SDS011;59168;;;2022-08-16T06:19:07;14.20;;;12.32;;
26411;SDS011;59168;;;2022-08-16T06:21:32;15.80;;;13.10;;
26411;SDS011;59168;;;2022-08-16T06:23:58;16.65;;;13.65;;
26411;SDS011;59168;;;2022-08-16T06:26:23;15.55;;;13.95;;
26411;SDS011;59168;;;2022-08-16T06:28:49;16.02;;;12.98;;
26411;SDS011;59168;;;2022-08-16T06:31:15;13.45;;;12.15;;
26411;SDS011;59168;;;2022-08-16T06:33:41;14.55;;;13.15;;
26411;SDS011;59168;;;2022-08-16T06:36:07;14.07;;;12.73;;
26411;SDS011;59168;;;2022-08-16T06:38:33;13.65;;;11.85;;
26411;SDS011;59168;;;2022-08-16T06:41:02;13.93;;;12.18;;
26411;SDS011;59168;;;2022-08-16T06:43:29;13.57;;;11.48;;
26411;SDS011;59168;;;2022-08-16T06:45:55;12.50;;;11.20;;
26411;SDS011;59168;;;2022-08-16T06:48:20;12.90;;;11.38;;
26411;SDS011;59168;;;2022-08-16T06:50:46;12.27;;;11.02;;
26411;SDS011;59168;;;2022-08-16T06:53:14;13.32;;;12.02;;
26411;SDS011;59168;;;2022-08-16T06:55:39;13.65;;;12.20;;
26411;SDS011;59168;;;2022-08-16T06:58:07;15.20;;;13.02;;
26411;SDS011;59168;;;2022-08-16T07:00:32;13.35;;;12.00;;
26411;SDS011;59168;;;2022-08-16T07:02:58;14.88;;;13.15;;
26411;SDS011;59168;;;2022-08-16T07:05:24;13.13;;;11.70;;
26411;SDS011;59168;;;2022-08-16T07:07:49;13.52;;;12.18;;
26411;SDS011;59168;;;2022-08-16T07:10:17;14.27;;;12.00;;
26411;SDS011;59168;;;2022-08-16T07:12:43;15.98;;;13.48;;
26411;SDS011;59168;;;2022-08-16T07:15:09;17.52;;;12.93;;
26411;SDS011;59168;;;2022-08-16T07:17:35;16.48;;;12.60;;
26411;SDS011;59168;;;2022-08-16T07:20:05;15.10;;;13.13;;
26411;SDS011;59168;;;2022-08-16T07:22:32;14.13;;;12.57;;
26411;SDS011;59168;;;2022-08-16T07:24:58;16.30;;;13.18;;
26411;SDS011;59168;;;2022-08-16T07:27:25;15.63;;;12.90;;
26411;SDS011;59168;;;2022-08-16T07:29:50;15.57;;;12.75;;
26411;SDS011;59168;;;2022-08-16T07:32:16;16.52;;;12.82;;
26411;SDS011;59168;;;2022-08-16T07:34:44;15.85;;;13.18;;
26411;SDS011;59168;;;2022-08-16T07:37:10;14.13;;;12.50;;
26411;SDS011;59168;;;2022-08-16T07:39:36;14.93;;;11.73;;
26411;SDS011;59168;;;2022-08-16T07:42:03;16.55;;;11.50;;
26411;SDS011;59168;;;2022-08-16T07:44:29;14.48;;;11.70;;
26411;SDS011;59168;;;2022-08-16T07:46:54;13.15;;;11.80;;
26411;SDS011;59168;;;2022-08-16T07:49:20;14.82;;;11.63;;
26411;SDS011;59168;;;2022-08-16T07:51:46;14.27;;;11.77;;
26411;SDS011;59168;;;2022-08-16T07:54:12;12.65;;;11.45;;
26411;SDS011;59168;;;2022-08-16T07:56:38;14.32;;;12.82;;
26411;SDS011;59168;;;2022-08-16T07:59:04;13.38;;;10.93;;
26411;SDS011;59168;;;2022-08-16T08:01:31;15.38;;;13.13;;
26411;SDS011;59168;;;2022-08-16T08:03:57;14.27;;;12.70;;
26411;SDS011;59168;;;2022-08-16T08:06:23;14.95;;;13.48;;
26411;SDS011;59168;;;2022-08-16T08:08:54;15.75;;;13.57;;
26411;SDS011;59168;;;2022-08-16T08:11:21;13.63;;;12.20;;
26411;SDS011;59168;;;2022-08-16T08:13:51;14.63;;;13.13;;
26411;SDS011;59168;;;2022-08-16T08:16:18;13.95;;;12.65;;
26411;SDS011;59168;;;2022-08-16T08:18:45;12.40;;;11.10;;
26411;SDS011;59168;;;2022-08-16T08:21:12;13.55;;;11.23;;
26411;SDS011;59168;;;2022-08-16T08:23:38;13.82;;;12.43;;
26411;SDS011;59168;;;2022-08-16T08:26:04;12.27;;;11.07;;
26411;SDS011;59168;;;2022-08-16T08:28:30;12.32;;;11.13;;
26411;SDS011;59168;;;2022-08-16T08:30:57;12.00;;;10.88;;
26411;SDS011;59168;;;2022-08-16T08:33:23;12.70;;;11.40;;
26411;SDS011;59168;;;2022-08-16T08:35:49;11.27;;;10.10;;
26411;SDS011;59168;;;2022-08-16T08:38:15;12.82;;;10.85;;
26411;SDS011;59168;;;2022-08-16T08:40:41;11.38;;;10.32;;
26411;SDS011;59168;;;2022-08-16T08:43:09;12.32;;;10.05;;
26411;SDS011;59168;;;2022-08-16T08:45:37;12.48;;;10.32;;
26411;SDS011;59168;;;2022-08-16T08:48:03;10.52;;;9.27;;
26411;SDS011;59168;;;2022-08-16T08:50:29;9.98;;;8.98;;
26411;SDS011;59168;;;2022-08-16T08:52:55;9.70;;;8.68;;
26411;SDS011;59168;;;2022-08-16T08:55:21;10.55;;;9.52;;
26411;SDS011;59168;;;2022-08-16T08:57:46;11.20;;;9.60;;
26411;SDS011;59168;;;2022-08-16T09:00:14;11.07;;;9.45;;
26411;SDS011;59168;;;2022-08-16T09:02:42;9.18;;;8.27;;
26411;SDS011;59168;;;2022-08-16T09:05:09;8.73;;;7.97;;
26411;SDS011;59168;;;2022-08-16T09:07:37;10.30;;;9.27;;
26411;SDS011;59168;;;2022-08-16T09:10:03;10.00;;;9.07;;
26411;SDS011;59168;;;2022-08-16T09:12:30;9.13;;;8.18;;
26411;SDS011;59168;;;2022-08-16T09:14:56;10.45;;;9.38;;
26411;SDS011;59168;;;2022-08-16T09:17:22;10.25;;;8.18;;
26411;SDS011;59168;;;2022-08-16T09:19:48;9.45;;;8.55;;
26411;SDS011;59168;;;2022-08-16T09:22:15;11.25;;;8.23;;
26411;SDS011;59168;;;2022-08-16T09:24:43;9.73;;;8.75;;
26411;SDS011;59168;;;2022-08-16T09:27:08;10.48;;;9.32;;
26411;SDS011;59168;;;2022-08-16T09:29:34;10.60;;;9.50;;
26411;SDS011;59168;;;2022-08-16T09:32:01;9.88;;;8.70;;
26411;SDS011;59168;;;2022-08-16T09:34:26;10.13;;;9.07;;
26411;SDS011;59168;;;2022-08-16T09:36:53;10.18;;;8.75;;
26411;SDS011;59168;;;2022-08-16T09:39:21;9.68;;;7.45;;
26411;SDS011;59168;;;2022-08-16T09:41:48;8.75;;;7.95;;
26411;SDS011;59168;;;2022-08-16T09:44:16;9.13;;;7.72;;
26411;SDS011;59168;;;2022-08-16T09:46:44;10.05;;;9.10;;
26411;SDS011;59168;;;2022-08-16T09:49:10;9.57;;;8.68;;
26411;SDS011;59168;;;2022-08-16T09:51:36;9.35;;;8.43;;
26411;SDS011;59168;;;2022-08-16T09:54:02;8.50;;;7.70;;
26411;SDS011;59168;;;2022-08-16T09:56:30;8.63;;;7.90;;
26411;SDS011;59168;;;2022-08-16T09:58:58;8.20;;;7.30;;
26411;SDS011;59168;;;2022-08-16T10:01:25;7.00;;;6.35;;
26411;SDS011;59168;;;2022-08-16T10:03:52;10.55;;;7.53;;
26411;SDS011;59168;;;2022-08-16T10:06:18;6.93;;;6.25;;
26411;SDS011;59168;;;2022-08-16T10:08:46;7.85;;;7.15;;
26411;SDS011;59168;;;2022-08-16T10:11:13;8.05;;;6.40;;
26411;SDS011;59168;;;2022-08-16T10:13:57;9.80;;;7.35;;
26411;SDS011;59168;;;2022-08-16T10:16:23;8.50;;;7.18;;
26411;SDS011;59168;;;2022-08-16T10:18:49;8.45;;;7.47;;
26411;SDS011;59168;;;2022-08-16T10:21:14;7.60;;;6.80;;
26411;SDS011;59168;;;2022-08-16T10:23:41;8.82;;;7.57;;
26411;SDS011;59168;;;2022-08-16T10:26:07;7.93;;;6.50;;
26411;SDS011;59168;;;2022-08-16T10:28:33;7.15;;;6.55;;
26411;SDS011;59168;;;2022-08-16T10:31:00;10.38;;;7.15;;
26411;SDS011;59168;;;2022-08-16T10:33:27;8.00;;;7.18;;
26411;SDS011;59168;;;2022-08-16T10:35:53;8.32;;;7.50;;
26411;SDS011;59168;;;2022-08-16T10:38:19;9.02;;;7.10;;
26411;SDS011;59168;;;2022-08-16T10:40:45;10.35;;;7.95;;
26411;SDS011;59168;;;2022-08-16T10:43:11;7.63;;;6.93;;
26411;SDS011;59168;;;2022-08-16T10:45:38;10.80;;;7.22;;
26411;SDS011;59168;;;2022-08-16T10:48:05;8.32;;;6.88;;
26411;SDS011;59168;;;2022-08-16T10:50:33;7.00;;;6.25;;
26411;SDS011;59168;;;2022-08-16T10:53:00;7.60;;;6.72;;
26411;SDS011;59168;;;2022-08-16T10:55:30;8.02;;;6.63;;
26411;SDS011;59168;;;2022-08-16T10:58:01;9.13;;;7.05;;
26411;SDS011;59168;;;2022-08-16T11:00:32;11.05;;;7.57;;
26411;SDS011;59168;;;2022-08-16T11:02:59;9.23;;;7.43;;
26411;SDS011;59168;;;2022-08-16T11:05:26;8.90;;;6.68;;
26411;SDS011;59168;;;2022-08-16T11:07:52;10.75;;;7.57;;
26411;SDS011;59168;;;2022-08-16T11:10:19;16.30;;;11.00;;
26411;SDS011;59168;;;2022-08-16T11:12:48;6.72;;;6.03;;
26411;SDS011;59168;;;2022-08-16T11:15:14;19.27;;;12.15;;
26411;SDS011;59168;;;2022-08-16T11:17:39;6.93;;;6.22;;
26411;SDS011;59168;;;2022-08-16T11:20:06;24.15;;;14.68;;
26411;SDS011;59168;;;2022-08-16T11:22:37;8.13;;;5.90;;
26411;SDS011;59168;;;2022-08-16T11:25:04;19.02;;;10.90;;
26411;SDS011;59168;;;2022-08-16T11:27:29;20.33;;;12.93;;
26411;SDS011;59168;;;2022-08-16T11:29:55;10.38;;;6.50;;
26411;SDS011;59168;;;2022-08-16T11:32:25;25.90;;;12.48;;
26411;SDS011;59168;;;2022-08-16T11:34:52;16.90;;;10.93;;
26411;SDS011;59168;;;2022-08-16T11:37:18;8.60;;;6.07;;
26411;SDS011;59168;;;2022-08-16T11:39:43;7.30;;;6.57;;
26411;SDS011;59168;;;2022-08-16T11:42:09;10.63;;;8.02;;
26411;SDS011;59168;;;2022-08-16T11:44:34;8.05;;;6.28;;
26411;SDS011;59168;;;2022-08-16T11:47:00;6.38;;;5.70;;
26411;SDS011;59168;;;2022-08-16T11:49:26;6.40;;;5.80;;
26411;SDS011;59168;;;2022-08-16T11:51:51;5.85;;;5.25;;
26411;SDS011;59168;;;2022-08-16T11:54:17;5.53;;;5.03;;
26411;SDS011;59168;;;2022-08-16T11:56:42;7.25;;;6.55;;
26411;SDS011;59168;;;2022-08-16T11:59:08;8.02;;;6.75;;
26411;SDS011;59168;;;2022-08-16T12:01:34;6.22;;;5.15;;
26411;SDS011;59168;;;2022-08-16T12:04:00;7.43;;;5.32;;
26411;SDS011;59168;;;2022-08-16T12:06:26;9.02;;;6.10;;
26411;SDS011;59168;;;2022-08-16T12:08:52;6.13;;;5.45;;
26411;SDS011;59168;;;2022-08-16T12:11:21;6.10;;;5.50;;
26411;SDS011;59168;;;2022-08-16T12:13:48;7.28;;;5.45;;
26411;SDS011;59168;;;2022-08-16T12:16:13;7.03;;;5.88;;
26411;SDS011;59168;;;2022-08-16T12:18:40;8.07;;;5.35;;
26411;SDS011;59168;;;2022-08-16T12:21:06;7.80;;;5.13;;
26411;SDS011;59168;;;2022-08-16T12:23:32;5.38;;;4.88;;
26411;SDS011;59168;;;2022-08-16T12:25:58;5.95;;;5.30;;
26411;SDS011;59168;;;2022-08-16T12:28:24;6.05;;;5.47;;
26411;SDS011;59168;;;2022-08-16T12:30:49;5.88;;;5.38;;
26411;SDS011;59168;;;2022-08-16T12:33:16;5.95;;;5.35;;
26411;SDS011;59168;;;2022-08-16T12:35:44;7.30;;;5.50;;
26411;SDS011;59168;;;2022-08-16T12:38:12;7.00;;;5.03;;
26411;SDS011;59168;;;2022-08-16T12:40:40;6.95;;;5.13;;
26411;SDS011;59168;;;2022-08-16T12:43:08;9.90;;;5.57;;
26411;SDS011;59168;;;2022-08-16T12:45:37;6.68;;;5.50;;
26411;SDS011;59168;;;2022-08-16T12:48:05;7.03;;;4.95;;
26411;SDS011;59168;;;2022-08-16T12:50:51;6.30;;;5.55;;
26411;SDS011;59168;;;2022-08-16T12:53:18;7.93;;;4.90;;
26411;SDS011;59168;;;2022-08-16T12:55:44;5.78;;;5.18;;
26411;SDS011;59168;;;2022-08-16T12:58:11;5.72;;;4.45;;
26411;SDS011;59168;;;2022-08-16T13:00:38;8.07;;;4.85;;
26411;SDS011;59168;;;2022-08-16T13:03:04;8.65;;;5.50;;
26411;SDS011;59168;;;2022-08-16T13:05:30;5.53;;;4.68;;
26411;SDS011;59168;;;2022-08-16T13:07:56;5.40;;;4.90;;
26411;SDS011;59168;;;2022-08-16T13:10:22;6.55;;;5.18;;
26411;SDS011;59168;;;2022-08-16T13:12:51;5.80;;;4.72;;
26411;SDS011;59168;;;2022-08-16T13:15:20;5.53;;;5.05;;
26411;SDS011;59168;;;2022-08-16T13:17:48;5.60;;;5.15;;
26411;SDS011;59168;;;2022-08-16T13:20:16;7.57;;;5.18;;
26411;SDS011;59168;;;2022-08-16T13:22:46;5.00;;;4.57;;
26411;SDS011;59168;;;2022-08-16T13:25:16;5.88;;;5.00;;
26411;SDS011;59168;;;2022-08-16T13:27:45;5.28;;;4.88;;
26411;SDS011;59168;;;2022-08-16T13:30:11;5.90;;;4.88;;
26411;SDS011;59168;;;2022-08-16T13:32:37;6.40;;;4.70;;
26411;SDS011;59168;;;2022-08-16T13:35:03;6.05;;;4.45;;
26411;SDS011;59168;;;2022-08-16T13:37:29;4.13;;;3.83;;
26411;SDS011;59168;;;2022-08-16T13:39:55;5.03;;;4.53;;
26411;SDS011;59168;;;2022-08-16T13:42:20;4.25;;;3.95;;
26411;SDS011;59168;;;2022-08-16T13:44:46;4.88;;;4.47;;
26411;SDS011;59168;;;2022-08-16T13:47:12;4.47;;;4.07;;
26411;SDS011;59168;;;2022-08-16T13:49:39;9.40;;;4.50;;
26411;SDS011;59168;;;2022-08-16T13:52:05;7.00;;;4.30;;
26411;SDS011;59168;;;2022-08-16T13:54:31;5.57;;;4.53;;
26411;SDS011;59168;;;2022-08-16T13:56:57;5.10;;;3.70;;
26411;SDS011;59168;;;2022-08-16T13:59:23;4.70;;;4.10;;
26411;SDS011;59168;;;2022-08-16T14:01:49;7.00;;;4.72;;
26411;SDS011;59168;;;2022-08-16T14:04:16;5.25;;;4.07;;
26411;SDS011;59168;;;2022-08-16T14:06:41;5.38;;;3.65;;
26411;SDS011;59168;;;2022-08-16T14:09:07;7.65;;;4.38;;
26411;SDS011;59168;;;2022-08-16T14:11:33;4.57;;;4.20;;
26411;SDS011;59168;;;2022-08-16T14:13:59;4.47;;;4.00;;
26411;SDS011;59168;;;2022-08-16T14:16:25;5.80;;;4.10;;
26411;SDS011;59168;;;2022-08-16T14:18:51;6.68;;;4.65;;
26411;SDS011;59168;;;2022-08-16T14:21:17;4.55;;;4.15;;
26411;SDS011;59168;;;2022-08-16T14:23:43;5.43;;;4.50;;
26411;SDS011;59168;;;2022-08-16T14:26:08;4.20;;;3.90;;
26411;SDS011;59168;;;2022-08-16T14:28:34;5.88;;;4.55;;
26411;SDS011;59168;;;2022-08-16T14:31:00;7.28;;;4.35;;
26411;SDS011;59168;;;2022-08-16T14:33:25;4.57;;;4.18;;
26411;SDS011;59168;;;2022-08-16T14:35:51;6.57;;;4.05;;
26411;SDS011;59168;;;2022-08-16T14:38:17;5.10;;;4.57;;
26411;SDS011;59168;;;2022-08-16T14:40:45;5.40;;;4.13;;
26411;SDS011;59168;;;2022-08-16T14:43:12;5.38;;;4.53;;
26411;SDS011;59168;;;2022-08-16T14:45:38;6.20;;;4.20;;
26411;SDS011;59168;;;2022-08-16T14:48:04;6.45;;;4.18;;
26411;SDS011;59168;;;2022-08-16T14:50:29;5.82;;;4.78;;
26411;SDS011;59168;;;2022-08-16T14:52:56;5.15;;;4.72;;
26411;SDS011;59168;;;2022-08-16T14:55:29;5.45;;;4.40;;
26411;SDS011;59168;;;2022-08-16T14:57:55;7.43;;;4.43;;
26411;SDS011;59168;;;2022-08-16T15:00:22;6.20;;;4.40;;
26411;SDS011;59168;;;2022-08-16T15:02:53;4.97;;;4.20;;
26411;SDS011;59168;;;2022-08-16T15:05:21;8.57;;;4.45;;
26411;SDS011;59168;;;2022-08-16T15:07:49;4.85;;;4.32;;
26411;SDS011;59168;;;2022-08-16T15:10:16;4.65;;;4.22;;
26411;SDS011;59168;;;2022-08-16T15:12:43;7.30;;;4.47;;
26411;SDS011;59168;;;2022-08-16T15:15:10;6.78;;;4.55;;
26411;SDS011;59168;;;2022-08-16T15:17:39;6.75;;;4.38;;
26411;SDS011;59168;;;2022-08-16T15:20:09;4.40;;;4.10;;
26411;SDS011;59168;;;2022-08-16T15:22:39;4.68;;;4.28;;
26411;SDS011;59168;;;2022-08-16T15:25:09;4.63;;;4.20;;
26411;SDS011;59168;;;2022-08-16T15:27:37;6.20;;;4.22;;
26411;SDS011;59168;;;2022-08-16T15:30:06;5.30;;;4.78;;
26411;SDS011;59168;;;2022-08-16T15:32:34;4.60;;;4.20;;
26411;SDS011;59168;;;2022-08-16T15:35:02;5.25;;;4.65;;
26411;SDS011;59168;;;2022-08-16T15:37:29;9.45;;;4.80;;
26411;SDS011;59168;;;2022-08-16T15:39:56;5.45;;;3.85;;
26411;SDS011;59168;;;2022-08-16T15:42:23;6.10;;;4.35;;
26411;SDS011;59168;;;2022-08-16T15:44:49;4.57;;;4.18;;
26411;SDS011;59168;;;2022-08-16T15:47:16;4.75;;;4.38;;
26411;SDS011;59168;;;2022-08-16T15:49:42;6.78;;;4.45;;
26411;SDS011;59168;;;2022-08-16T15:52:42;5.00;;;4.60;;
26411;SDS011;59168;;;2022-08-16T15:55:06;5.68;;;3.88;;
26411;SDS011;59168;;;2022-08-16T15:57:33;4.90;;;4.47;;
26411;SDS011;59168;;;2022-08-16T15:59:59;5.22;;;4.72;;
26411;SDS011;59168;;;2022-08-16T16:02:30;6.18;;;5.30;;
26411;SDS011;59168;;;2022-08-16T16:04:58;6.53;;;5.63;;
26411;SDS011;59168;;;2022-08-16T16:07:25;6.53;;;4.57;;
26411;SDS011;59168;;;2022-08-16T16:09:51;6.32;;;4.80;;
26411;SDS011;59168;;;2022-08-16T16:12:16;6.68;;;4.07;;
26411;SDS011;59168;;;2022-08-16T16:14:42;5.32;;;4.40;;
26411;SDS011;59168;;;2022-08-16T16:17:07;6.75;;;4.78;;
26411;SDS011;59168;;;2022-08-16T16:19:33;4.95;;;4.35;;
26411;SDS011;59168;;;2022-08-16T16:21:59;5.68;;;4.45;;
26411;SDS011;59168;;;2022-08-16T16:24:24;6.57;;;5.03;;
26411;SDS011;59168;;;2022-08-16T16:26:50;7.85;;;5.60;;
26411;SDS011;59168;;;2022-08-16T16:29:16;5.28;;;4.78;;
26411;SDS011;59168;;;2022-08-16T16:31:42;4.53;;;4.05;;
26411;SDS011;59168;;;2022-08-16T16:34:08;8.20;;;4.80;;
26411;SDS011;59168;;;2022-08-16T16:36:34;7.82;;;4.35;;
26411;SDS011;59168;;;2022-08-16T16:39:01;6.65;;;4.05;;
26411;SDS011;59168;;;2022-08-16T16:41:30;12.18;;;5.45;;
26411;SDS011;59168;;;2022-08-16T16:43:57;6.78;;;4.50;;
26411;SDS011;59168;;;2022-08-16T16:46:25;6.03;;;4.20;;
26411;SDS011;59168;;;2022-08-16T16:48:53;8.07;;;3.88;;
26411;SDS011;59168;;;2022-08-16T16:51:20;10.90;;;4.18;;
26411;SDS011;59168;;;2022-08-16T16:53:46;5.15;;;4.35;;
26411;SDS011;59168;;;2022-08-16T16:56:13;8.65;;;3.90;;
26411;SDS011;59168;;;2022-08-16T16:58:41;7.28;;;4.50;;
26411;SDS011;59168;;;2022-08-16T17:01:27;10.88;;;6.40;;
26411;SDS011;59168;;;2022-08-16T17:03:56;8.20;;;4.63;;
26411;SDS011;59168;;;2022-08-16T17:06:26;6.80;;;4.70;;
26411;SDS011;59168;;;2022-08-16T17:08:53;4.97;;;4.30;;
26411;SDS011;59168;;;2022-08-16T17:11:18;5.88;;;4.05;;
26411;SDS011;59168;;;2022-08-16T17:13:45;5.20;;;4.45;;
26411;SDS011;59168;;;2022-08-16T17:16:10;5.90;;;3.88;;
26411;SDS011;59168;;;2022-08-16T17:18:36;7.38;;;4.57;;
26411;SDS011;59168;;;2022-08-16T17:21:03;5.43;;;4.30;;
26411;SDS011;59168;;;2022-08-16T17:23:29;10.85;;;9.13;;
26411;SDS011;59168;;;2022-08-16T17:25:55;10.65;;;5.15;;
26411;SDS011;59168;;;2022-08-16T17:28:21;8.88;;;5.90;;